createdAt,value
2022-11-09T00:00:03.603Z,10.31
2022-11-09T00:01:03.613Z,10.31
2022-11-09T00:02:03.746Z,10.31
2022-11-09T00:03:03.750Z,10.31
2022-11-09T00:04:03.753Z,10.25
2022-11-09T00:05:03.834Z,10.25
2022-11-09T00:06:03.824Z,10.25
2022-11-09T00:07:04.009Z,10.25
2022-11-09T00:08:03.913Z,10.25
2022-11-09T00:09:07.316Z,10.25
2022-11-09T00:10:04.306Z,10.25
2022-11-09T00:11:04.166Z,10.19
2022-11-09T00:12:04.226Z,10.19
2022-11-09T00:13:04.166Z,10.12
2022-11-09T00:14:04.240Z,10.19
2022-11-09T00:15:04.397Z,10.19
2022-11-09T00:16:03.506Z,10.19
2022-11-09T00:17:03.594Z,10.19
2022-11-09T00:18:04.391Z,10.19
2022-11-09T00:19:03.503Z,10.19
2022-11-09T00:20:03.603Z,10.19
2022-11-09T00:21:03.773Z,10.19
2022-11-09T00:22:03.665Z,10.19
2022-11-09T00:23:03.832Z,10.19
2022-11-09T00:24:03.903Z,10.19
2022-11-09T00:25:03.908Z,10.19
2022-11-09T00:26:04.065Z,10.25
2022-11-09T00:27:04.319Z,10.25
2022-11-09T00:28:04.319Z,10.19
2022-11-09T00:29:04.317Z,10.19
2022-11-09T00:30:04.409Z,10.12
2022-11-09T00:31:03.530Z,10.12
2022-11-09T00:32:03.595Z,10.12
2022-11-09T00:33:03.598Z,10.19
2022-11-09T00:34:03.528Z,10.12
2022-11-09T00:35:03.667Z,10.12
2022-11-09T00:36:03.756Z,10.12
2022-11-09T00:37:03.764Z,10.12
2022-11-09T00:38:03.932Z,10.12
2022-11-09T00:39:03.901Z,10.12
2022-11-09T00:40:03.899Z,10.12
2022-11-09T00:41:04.070Z,10.12
2022-11-09T00:42:04.151Z,10.12
2022-11-09T00:43:04.153Z,10.12
2022-11-09T00:44:04.159Z,10.19
2022-11-09T00:45:03.507Z,10.12
2022-11-09T00:46:03.605Z,10.19
2022-11-09T00:47:03.593Z,10.19
2022-11-09T00:48:03.832Z,10.19
2022-11-09T00:49:03.836Z,10.19
2022-11-09T00:50:03.914Z,10.19
2022-11-09T00:51:03.914Z,10.19
2022-11-09T00:52:03.988Z,10.19
2022-11-09T00:53:03.587Z,10.19
2022-11-09T00:54:03.581Z,10.19
2022-11-09T00:55:03.672Z,10.19
2022-11-09T00:56:04.156Z,10.19
2022-11-09T00:57:04.189Z,10.12
2022-11-09T00:58:04.233Z,10.19
2022-11-09T00:59:04.230Z,10.25
2022-11-09T01:00:04.404Z,10.25
2022-11-09T01:01:04.523Z,10.25
2022-11-09T01:02:04.387Z,10.25
2022-11-09T01:03:04.472Z,10.25
2022-11-09T01:04:03.586Z,10.25
2022-11-09T01:05:04.394Z,10.25
2022-11-09T01:06:04.390Z,10.25
2022-11-09T01:07:04.544Z,10.25
2022-11-09T01:08:03.595Z,10.25
2022-11-09T01:09:03.664Z,10.25
2022-11-09T01:10:04.010Z,10.25
2022-11-09T01:11:04.143Z,10.25
2022-11-09T01:12:04.151Z,10.25
2022-11-09T01:13:04.232Z,10.25
2022-11-09T01:14:04.398Z,10.25
2022-11-09T01:15:03.599Z,10.25
2022-11-09T01:16:03.591Z,10.25
2022-11-09T01:17:03.695Z,10.25
2022-11-09T01:18:03.756Z,10.25
2022-11-09T01:19:03.828Z,10.25
2022-11-09T01:20:03.834Z,10.25
2022-11-09T01:21:03.911Z,10.25
2022-11-09T01:22:03.902Z,10.25
2022-11-09T01:23:03.913Z,10.25
2022-11-09T01:24:03.990Z,10.25
2022-11-09T01:25:04.098Z,10.31
2022-11-09T01:26:04.065Z,10.31
2022-11-09T01:27:04.174Z,10.31
2022-11-09T01:28:04.227Z,10.31
2022-11-09T01:29:04.219Z,10.31
2022-11-09T01:30:04.148Z,10.31
2022-11-09T01:31:04.310Z,10.31
2022-11-09T01:32:04.479Z,10.31
2022-11-09T01:33:04.551Z,10.31
2022-11-09T01:34:03.503Z,10.38
2022-11-09T01:35:03.423Z,10.31
2022-11-09T01:36:03.510Z,10.38
2022-11-09T01:37:03.672Z,10.38
2022-11-09T01:38:03.669Z,10.38
2022-11-09T01:39:03.914Z,10.38
2022-11-09T01:40:04.079Z,10.38
2022-11-09T01:41:03.985Z,10.38
2022-11-09T01:42:04.234Z,10.38
2022-11-09T01:43:04.305Z,10.38
2022-11-09T01:44:04.468Z,10.38
2022-11-09T01:45:03.677Z,10.44
2022-11-09T01:46:03.586Z,10.44
2022-11-09T01:47:03.765Z,10.50
2022-11-09T01:48:03.827Z,10.50
2022-11-09T01:49:03.989Z,10.50
2022-11-09T01:50:04.068Z,10.50
2022-11-09T01:51:04.074Z,10.50
2022-11-09T01:52:04.225Z,10.56
2022-11-09T01:53:04.219Z,10.56
2022-11-09T01:54:04.384Z,10.56
2022-11-09T01:55:03.518Z,10.56
2022-11-09T01:56:03.670Z,10.56
2022-11-09T01:57:03.581Z,10.56
2022-11-09T01:58:03.667Z,10.62
2022-11-09T01:59:03.672Z,10.56
2022-11-09T02:00:03.759Z,10.56
2022-11-09T02:01:03.879Z,10.62
2022-11-09T02:02:03.905Z,10.62
2022-11-09T02:03:04.066Z,10.62
2022-11-09T02:04:04.074Z,10.62
2022-11-09T02:05:04.076Z,10.62
2022-11-09T02:06:04.075Z,10.62
2022-11-09T02:07:04.206Z,10.62
2022-11-09T02:08:04.162Z,10.69
2022-11-09T02:09:04.225Z,10.62
2022-11-09T02:10:04.225Z,10.62
2022-11-09T02:11:04.388Z,10.62
2022-11-09T02:12:04.321Z,10.62
2022-11-09T02:13:04.314Z,10.62
2022-11-09T02:14:03.422Z,10.62
2022-11-09T02:15:03.587Z,10.62
2022-11-09T02:16:03.662Z,10.62
2022-11-09T02:17:03.841Z,10.56
2022-11-09T02:18:03.829Z,10.56
2022-11-09T02:19:03.828Z,10.56
2022-11-09T02:20:03.945Z,10.56
2022-11-09T02:21:03.926Z,10.56
2022-11-09T02:22:04.316Z,10.56
2022-11-09T02:23:04.305Z,10.56
2022-11-09T02:24:03.588Z,10.56
2022-11-09T02:25:03.684Z,10.56
2022-11-09T02:26:03.674Z,10.56
2022-11-09T02:27:03.834Z,10.56
2022-11-09T02:28:03.821Z,10.56
2022-11-09T02:29:03.984Z,10.56
2022-11-09T02:30:03.987Z,10.56
2022-11-09T02:31:04.070Z,10.56
2022-11-09T02:32:04.074Z,10.50
2022-11-09T02:33:04.233Z,10.50
2022-11-09T02:34:03.915Z,10.50
2022-11-09T02:35:03.915Z,10.50
2022-11-09T02:36:04.082Z,10.44
2022-11-09T02:37:04.160Z,10.50
2022-11-09T02:38:04.168Z,10.44
2022-11-09T02:39:04.354Z,10.44
2022-11-09T02:40:04.313Z,10.44
2022-11-09T02:41:04.468Z,10.44
2022-11-09T02:42:06.812Z,10.38
2022-11-09T02:43:03.509Z,10.38
2022-11-09T02:44:03.592Z,10.38
2022-11-09T02:45:03.757Z,10.38
2022-11-09T02:46:03.743Z,10.31
2022-11-09T02:47:03.748Z,10.31
2022-11-09T02:48:03.924Z,10.31
2022-11-09T02:49:03.909Z,10.31
2022-11-09T02:50:04.086Z,10.31
2022-11-09T02:51:04.064Z,10.31
2022-11-09T02:52:04.240Z,10.25
2022-11-09T02:53:04.248Z,10.25
2022-11-09T02:54:04.386Z,10.25
2022-11-09T02:55:04.473Z,10.31
2022-11-09T02:56:04.067Z,10.31
2022-11-09T02:57:04.067Z,10.25
2022-11-09T02:58:04.158Z,10.25
2022-11-09T02:59:04.159Z,10.25
2022-11-09T03:00:03.762Z,10.25
2022-11-09T03:01:03.783Z,10.25
2022-11-09T03:02:03.751Z,10.19
2022-11-09T03:03:03.746Z,10.19
2022-11-09T03:04:03.830Z,10.19
2022-11-09T03:05:03.911Z,10.19
2022-11-09T03:06:03.918Z,10.19
2022-11-09T03:07:04.052Z,10.25
2022-11-09T03:08:03.997Z,10.19
2022-11-09T03:09:03.991Z,10.19
2022-11-09T03:10:04.138Z,10.19
2022-11-09T03:11:04.311Z,10.19
2022-11-09T03:12:04.317Z,10.19
2022-11-09T03:13:04.317Z,10.19
2022-11-09T03:14:04.477Z,10.19
2022-11-09T03:15:03.526Z,10.19
2022-11-09T03:16:03.516Z,10.19
2022-11-09T03:17:03.508Z,10.19
2022-11-09T03:18:03.677Z,10.19
2022-11-09T03:19:03.751Z,10.19
2022-11-09T03:20:03.583Z,10.12
2022-11-09T03:21:03.749Z,10.19
2022-11-09T03:22:03.746Z,10.12
2022-11-09T03:23:03.834Z,10.12
2022-11-09T03:24:03.980Z,10.12
2022-11-09T03:25:04.075Z,10.12
2022-11-09T03:26:03.993Z,10.06
2022-11-09T03:27:04.071Z,10.06
2022-11-09T03:28:04.076Z,10.06
2022-11-09T03:29:04.156Z,10.06
2022-11-09T03:30:04.161Z,10.06
2022-11-09T03:31:04.161Z,10.06
2022-11-09T03:32:04.150Z,10.06
2022-11-09T03:33:04.230Z,10.06
2022-11-09T03:34:04.224Z,10.06
2022-11-09T03:35:04.302Z,10.06
2022-11-09T03:36:04.310Z,10.06
2022-11-09T03:37:04.303Z,10.06
2022-11-09T03:38:04.514Z,10.12
2022-11-09T03:39:04.333Z,10.12
2022-11-09T03:40:04.461Z,10.12
2022-11-09T03:41:04.391Z,10.19
2022-11-09T03:42:04.385Z,10.19
2022-11-09T03:43:04.473Z,10.19
2022-11-09T03:44:03.525Z,10.19
2022-11-09T03:45:03.521Z,10.25
2022-11-09T03:46:03.512Z,10.25
2022-11-09T03:47:03.512Z,10.25
2022-11-09T03:48:03.595Z,10.25
2022-11-09T03:49:03.583Z,10.31
2022-11-09T03:50:03.583Z,10.31
2022-11-09T03:51:04.232Z,10.31
2022-11-09T03:52:04.310Z,10.31
2022-11-09T03:53:04.308Z,10.31
2022-11-09T03:54:04.398Z,10.31
2022-11-09T03:55:04.385Z,10.31
2022-11-09T03:56:03.423Z,10.31
2022-11-09T03:57:03.504Z,10.31
2022-11-09T03:58:03.510Z,10.38
2022-11-09T03:59:03.594Z,10.38
2022-11-09T04:00:03.581Z,10.38
2022-11-09T04:01:03.588Z,10.38
2022-11-09T04:02:03.625Z,10.38
2022-11-09T04:03:03.748Z,10.38
2022-11-09T04:04:03.746Z,10.38
2022-11-09T04:05:03.916Z,10.38
2022-11-09T04:06:03.913Z,10.38
2022-11-09T04:07:04.218Z,10.38
2022-11-09T04:08:04.165Z,10.38
2022-11-09T04:09:04.350Z,10.44
2022-11-09T04:10:04.437Z,10.44
2022-11-09T04:11:03.427Z,10.44
2022-11-09T04:12:03.582Z,10.44
2022-11-09T04:13:03.586Z,10.44
2022-11-09T04:14:03.668Z,10.44
2022-11-09T04:15:03.789Z,10.50
2022-11-09T04:16:03.767Z,10.50
2022-11-09T04:17:03.743Z,10.50
2022-11-09T04:18:03.913Z,10.50
2022-11-09T04:19:04.087Z,10.50
2022-11-09T04:20:04.082Z,10.50
2022-11-09T04:21:04.089Z,10.50
2022-11-09T04:22:04.341Z,10.50
2022-11-09T04:23:04.388Z,10.50
2022-11-09T04:24:04.490Z,10.56
2022-11-09T04:25:04.397Z,10.56
2022-11-09T04:26:04.471Z,10.56
2022-11-09T04:27:03.585Z,10.56
2022-11-09T04:28:03.669Z,10.56
2022-11-09T04:29:03.686Z,10.56
2022-11-09T04:30:03.688Z,10.56
2022-11-09T04:31:03.662Z,10.56
2022-11-09T04:32:03.996Z,10.56
2022-11-09T04:33:04.082Z,10.56
2022-11-09T04:34:03.985Z,10.56
2022-11-09T04:35:04.159Z,10.62
2022-11-09T04:36:04.154Z,10.62
2022-11-09T04:37:04.236Z,10.62
2022-11-09T04:38:04.479Z,10.62
2022-11-09T04:39:04.481Z,10.62
2022-11-09T04:40:03.512Z,10.62
2022-11-09T04:41:03.596Z,10.62
2022-11-09T04:42:03.757Z,10.62
2022-11-09T04:43:03.743Z,10.69
2022-11-09T04:44:03.908Z,10.69
2022-11-09T04:45:03.906Z,10.69
2022-11-09T04:46:04.075Z,10.69
2022-11-09T04:47:04.085Z,10.69
2022-11-09T04:48:04.076Z,10.69
2022-11-09T04:49:04.067Z,10.75
2022-11-09T04:50:04.069Z,10.75
2022-11-09T04:51:04.059Z,10.75
2022-11-09T04:52:04.151Z,10.75
2022-11-09T04:53:07.699Z,10.75
2022-11-09T04:54:03.503Z,10.75
2022-11-09T04:55:03.591Z,10.75
2022-11-09T04:56:03.669Z,10.75
2022-11-09T04:57:03.758Z,10.81
2022-11-09T04:58:03.984Z,10.81
2022-11-09T04:59:04.063Z,10.81
2022-11-09T05:00:04.224Z,10.81
2022-11-09T05:01:04.389Z,10.81
2022-11-09T05:02:04.390Z,10.88
2022-11-09T05:03:04.430Z,10.88
2022-11-09T05:04:05.388Z,10.88
2022-11-09T05:05:03.518Z,10.88
2022-11-09T05:06:03.592Z,10.88
2022-11-09T05:07:03.631Z,10.94
2022-11-09T05:08:04.176Z,10.94
2022-11-09T05:09:04.227Z,10.94
2022-11-09T05:10:04.321Z,10.94
2022-11-09T05:11:04.323Z,10.94
2022-11-09T05:12:04.305Z,11.00
2022-11-09T05:13:04.314Z,11.00
2022-11-09T05:14:04.314Z,11.00
2022-11-09T05:15:04.300Z,11.00
2022-11-09T05:16:04.475Z,11.00
2022-11-09T05:17:03.517Z,11.00
2022-11-09T05:18:03.602Z,11.06
2022-11-09T05:19:03.764Z,11.06
2022-11-09T05:20:04.320Z,11.06
2022-11-09T05:21:04.320Z,11.06
2022-11-09T05:22:04.262Z,11.06
2022-11-09T05:23:04.409Z,11.06
2022-11-09T05:24:04.389Z,11.12
2022-11-09T05:25:04.575Z,11.12
2022-11-09T05:26:03.662Z,11.12
2022-11-09T05:27:03.587Z,11.12
2022-11-09T05:28:04.468Z,11.12
2022-11-09T05:29:03.670Z,11.12
2022-11-09T05:30:03.754Z,11.12
2022-11-09T05:31:03.769Z,11.12
2022-11-09T05:32:03.757Z,11.12
2022-11-09T05:33:03.832Z,11.12
2022-11-09T05:34:03.918Z,11.12
2022-11-09T05:35:04.069Z,11.12
2022-11-09T05:36:04.178Z,11.12
2022-11-09T05:37:04.236Z,11.12
2022-11-09T05:38:04.310Z,11.12
2022-11-09T05:39:04.397Z,11.12
2022-11-09T05:40:04.464Z,11.19
2022-11-09T05:41:04.381Z,11.19
2022-11-09T05:42:04.411Z,11.19
2022-11-09T05:43:04.471Z,11.25
2022-11-09T05:44:04.468Z,11.25
2022-11-09T05:45:28.234Z,11.25
2022-11-09T05:46:06.518Z,11.25
2022-11-09T05:47:04.245Z,11.25
2022-11-09T05:48:04.240Z,11.25
2022-11-09T05:49:04.306Z,11.31
2022-11-09T05:50:04.382Z,11.31
2022-11-09T05:51:03.514Z,11.31
2022-11-09T05:52:03.591Z,11.31
2022-11-09T05:53:03.743Z,11.31
2022-11-09T05:54:03.750Z,11.31
2022-11-09T05:55:03.756Z,11.31
2022-11-09T05:56:03.908Z,11.31
2022-11-09T05:57:03.749Z,11.31
2022-11-09T05:58:03.752Z,11.31
2022-11-09T05:59:03.749Z,11.31
2022-11-09T06:00:07.350Z,11.31
2022-11-09T06:01:03.980Z,11.31
2022-11-09T06:02:04.197Z,11.31
2022-11-09T06:03:04.237Z,11.31
2022-11-09T06:04:04.314Z,11.31
2022-11-09T06:05:03.510Z,11.31
2022-11-09T06:06:07.938Z,11.38
2022-11-09T06:07:03.630Z,11.31
2022-11-09T06:08:03.588Z,11.38
2022-11-09T06:09:03.744Z,11.38
2022-11-09T06:10:03.838Z,11.38
2022-11-09T06:11:03.910Z,11.38
2022-11-09T06:12:04.071Z,11.38
2022-11-09T06:13:04.069Z,11.38
2022-11-09T06:14:04.139Z,11.38
2022-11-09T06:15:04.144Z,11.38
2022-11-09T06:16:04.317Z,11.38
2022-11-09T06:17:04.403Z,11.38
2022-11-09T06:18:04.558Z,11.44
2022-11-09T06:19:03.520Z,11.44
2022-11-09T06:20:03.520Z,11.44
2022-11-09T06:21:03.672Z,11.44
2022-11-09T06:22:03.675Z,11.44
2022-11-09T06:23:04.424Z,11.44
2022-11-09T06:24:03.824Z,11.44
2022-11-09T06:25:04.002Z,11.44
2022-11-09T06:26:04.064Z,11.44
2022-11-09T06:27:04.150Z,11.44
2022-11-09T06:28:04.102Z,11.50
2022-11-09T06:29:04.234Z,11.50
2022-11-09T06:30:04.228Z,11.50
2022-11-09T06:31:04.309Z,11.50
2022-11-09T06:32:04.390Z,11.50
2022-11-09T06:33:04.398Z,11.50
2022-11-09T06:34:04.396Z,11.50
2022-11-09T06:35:04.480Z,11.50
2022-11-09T06:36:04.471Z,11.50
2022-11-09T06:37:03.521Z,11.50
2022-11-09T06:38:03.681Z,11.50
2022-11-09T06:39:03.746Z,11.50
2022-11-09T06:40:03.752Z,11.44
2022-11-09T06:41:03.921Z,11.50
2022-11-09T06:42:04.002Z,11.50
2022-11-09T06:43:04.001Z,11.50
2022-11-09T06:44:03.996Z,11.50
2022-11-09T06:45:03.995Z,11.50
2022-11-09T06:46:04.074Z,11.56
2022-11-09T06:47:04.157Z,11.56
2022-11-09T06:48:04.236Z,11.56
2022-11-09T06:49:04.396Z,11.56
2022-11-09T06:50:04.556Z,11.56
2022-11-09T06:51:03.513Z,11.56
2022-11-09T06:52:03.522Z,11.56
2022-11-09T06:53:03.589Z,11.56
2022-11-09T06:54:03.561Z,11.56
2022-11-09T06:55:03.678Z,11.56
2022-11-09T06:56:03.765Z,11.56
2022-11-09T06:57:03.749Z,11.56
2022-11-09T06:58:03.826Z,11.56
2022-11-09T06:59:03.988Z,11.56
2022-11-09T07:00:04.202Z,11.56
2022-11-09T07:01:04.113Z,11.56
2022-11-09T07:02:04.066Z,11.56
2022-11-09T07:03:04.066Z,11.56
2022-11-09T07:04:04.150Z,11.56
2022-11-09T07:05:04.310Z,11.56
2022-11-09T07:06:04.311Z,11.56
2022-11-09T07:07:04.444Z,11.56
2022-11-09T07:08:04.245Z,11.56
2022-11-09T07:09:04.150Z,11.56
2022-11-09T07:10:04.242Z,11.50
2022-11-09T07:11:04.149Z,11.50
2022-11-09T07:12:04.231Z,11.44
2022-11-09T07:13:04.405Z,11.44
2022-11-09T07:14:04.400Z,11.44
2022-11-09T07:15:04.471Z,11.50
2022-11-09T07:16:03.997Z,11.50
2022-11-09T07:17:03.987Z,11.50
2022-11-09T07:18:03.916Z,11.44
2022-11-09T07:19:03.915Z,11.44
2022-11-09T07:20:03.901Z,11.44
2022-11-09T07:21:04.077Z,11.44
2022-11-09T07:22:04.239Z,11.44
2022-11-09T07:23:04.255Z,11.44
2022-11-09T07:24:04.233Z,11.44
2022-11-09T07:25:04.315Z,11.44
2022-11-09T07:26:04.229Z,11.44
2022-11-09T07:27:04.400Z,11.44
2022-11-09T07:28:04.478Z,11.44
2022-11-09T07:29:03.678Z,11.44
2022-11-09T07:30:03.755Z,11.44
2022-11-09T07:31:03.757Z,11.44
2022-11-09T07:32:03.748Z,11.44
2022-11-09T07:33:20.665Z,11.44
2022-11-09T07:34:03.669Z,11.44
2022-11-09T07:35:03.853Z,11.44
2022-11-09T07:36:03.756Z,11.44
2022-11-09T07:37:03.751Z,11.44
2022-11-09T07:38:03.834Z,11.44
2022-11-09T07:39:03.848Z,11.44
2022-11-09T07:40:03.926Z,11.44
2022-11-09T07:41:03.912Z,11.44
2022-11-09T07:42:04.002Z,11.44
2022-11-09T07:43:04.162Z,11.44
2022-11-09T07:44:04.078Z,11.44
2022-11-09T07:45:04.171Z,11.44
2022-11-09T07:46:04.160Z,11.44
2022-11-09T07:47:04.088Z,11.44
2022-11-09T07:48:04.165Z,11.44
2022-11-09T07:49:04.096Z,11.44
2022-11-09T07:50:04.231Z,11.44
2022-11-09T07:51:04.314Z,11.50
2022-11-09T07:52:04.390Z,11.44
2022-11-09T07:53:03.514Z,11.44
2022-11-09T07:54:03.520Z,11.44
2022-11-09T07:55:03.508Z,11.44
2022-11-09T07:56:03.513Z,11.44
2022-11-09T07:57:03.748Z,11.44
2022-11-09T07:58:03.835Z,11.44
2022-11-09T07:59:03.806Z,11.44
2022-11-09T08:00:03.831Z,11.44
2022-11-09T08:01:03.914Z,11.44
2022-11-09T08:02:03.945Z,11.44
2022-11-09T08:03:03.918Z,11.38
2022-11-09T08:04:04.094Z,11.44
2022-11-09T08:05:04.162Z,11.44
2022-11-09T08:06:04.064Z,11.44
2022-11-09T08:07:04.250Z,11.44
2022-11-09T08:08:04.246Z,11.44
2022-11-09T08:09:04.235Z,11.44
2022-11-09T08:10:04.316Z,11.44
2022-11-09T08:11:04.400Z,11.44
2022-11-09T08:12:04.306Z,11.44
2022-11-09T08:13:03.601Z,11.50
2022-11-09T08:14:03.607Z,11.50
2022-11-09T08:15:03.584Z,11.50
2022-11-09T08:16:03.599Z,11.56
2022-11-09T08:17:03.665Z,11.56
2022-11-09T08:18:03.840Z,11.62
2022-11-09T08:19:03.664Z,11.62
2022-11-09T08:20:03.752Z,11.62
2022-11-09T08:21:03.753Z,11.62
2022-11-09T08:22:03.741Z,11.62
2022-11-09T08:23:04.672Z,11.69
2022-11-09T08:24:03.745Z,11.62
2022-11-09T08:25:03.942Z,11.69
2022-11-09T08:26:04.003Z,11.69
2022-11-09T08:27:03.835Z,11.69
2022-11-09T08:28:03.913Z,11.69
2022-11-09T08:29:03.986Z,11.75
2022-11-09T08:30:04.071Z,11.75
2022-11-09T08:31:03.991Z,11.75
2022-11-09T08:32:04.152Z,11.75
2022-11-09T08:33:04.224Z,11.75
2022-11-09T08:34:04.306Z,11.75
2022-11-09T08:35:04.405Z,11.81
2022-11-09T08:36:04.401Z,11.81
2022-11-09T08:37:03.523Z,11.81
2022-11-09T08:38:03.599Z,11.88
2022-11-09T08:39:03.673Z,11.88
2022-11-09T08:40:03.672Z,11.88
2022-11-09T08:41:03.678Z,11.88
2022-11-09T08:42:03.667Z,11.88
2022-11-09T08:43:03.665Z,11.88
2022-11-09T08:44:03.839Z,11.88
2022-11-09T08:45:03.838Z,11.88
2022-11-09T08:46:03.840Z,11.94
2022-11-09T08:47:03.827Z,11.94
2022-11-09T08:48:03.917Z,11.94
2022-11-09T08:49:03.991Z,11.94
2022-11-09T08:50:03.992Z,11.94
2022-11-09T08:51:04.080Z,12.00
2022-11-09T08:52:04.072Z,12.00
2022-11-09T08:53:04.087Z,12.06
2022-11-09T08:54:03.989Z,12.06
2022-11-09T08:55:04.080Z,12.12
2022-11-09T08:56:04.065Z,12.12
2022-11-09T08:57:04.075Z,12.19
2022-11-09T08:58:04.155Z,12.19
2022-11-09T08:59:04.083Z,12.19
2022-11-09T09:00:04.244Z,12.19
2022-11-09T09:01:04.388Z,12.25
2022-11-09T09:02:04.475Z,12.25
2022-11-09T09:03:03.518Z,12.25
2022-11-09T09:04:03.604Z,12.31
2022-11-09T09:05:03.626Z,12.38
2022-11-09T09:06:03.670Z,12.38
2022-11-09T09:07:03.817Z,12.38
2022-11-09T09:08:03.915Z,12.38
2022-11-09T09:09:03.903Z,12.44
2022-11-09T09:10:03.982Z,12.44
2022-11-09T09:11:03.990Z,12.44
2022-11-09T09:12:03.989Z,12.50
2022-11-09T09:13:04.080Z,12.50
2022-11-09T09:14:04.063Z,12.50
2022-11-09T09:15:04.249Z,12.50
2022-11-09T09:16:04.183Z,12.56
2022-11-09T09:17:04.239Z,12.56
2022-11-09T09:18:04.240Z,12.56
2022-11-09T09:19:04.230Z,12.62
2022-11-09T09:20:04.238Z,12.62
2022-11-09T09:21:04.398Z,12.62
2022-11-09T09:22:04.396Z,12.62
2022-11-09T09:23:04.466Z,12.69
2022-11-09T09:24:03.515Z,12.69
2022-11-09T09:25:04.477Z,12.69
2022-11-09T09:26:03.588Z,12.69
2022-11-09T09:27:03.586Z,12.75
2022-11-09T09:28:03.595Z,12.75
2022-11-09T09:29:03.593Z,12.75
2022-11-09T09:30:03.746Z,12.75
2022-11-09T09:31:03.751Z,12.81
2022-11-09T09:32:03.666Z,12.81
2022-11-09T09:33:03.761Z,12.81
2022-11-09T09:34:03.663Z,12.88
2022-11-09T09:35:03.750Z,12.88
2022-11-09T09:36:03.834Z,12.94
2022-11-09T09:37:03.829Z,12.94
2022-11-09T09:38:03.769Z,12.94
2022-11-09T09:39:03.918Z,13.00
2022-11-09T09:40:03.919Z,13.00
2022-11-09T09:41:03.835Z,13.00
2022-11-09T09:42:03.912Z,13.06
2022-11-09T09:43:03.920Z,13.06
2022-11-09T09:44:03.838Z,13.12
2022-11-09T09:45:03.851Z,13.12
2022-11-09T09:46:03.744Z,13.19
2022-11-09T09:47:03.832Z,13.19
2022-11-09T09:48:03.918Z,13.25
2022-11-09T09:49:03.833Z,13.31
2022-11-09T09:50:04.011Z,13.31
2022-11-09T09:51:04.081Z,13.38
2022-11-09T09:52:04.145Z,13.44
2022-11-09T09:53:23.046Z,13.44
2022-11-09T09:54:04.225Z,13.50
2022-11-09T09:55:04.310Z,13.50
2022-11-09T09:56:04.392Z,13.56
2022-11-09T09:57:04.389Z,13.56
2022-11-09T09:58:03.525Z,13.62
2022-11-09T09:59:03.592Z,13.69
2022-11-09T10:00:03.592Z,13.69
2022-11-09T10:01:03.746Z,13.75
2022-11-09T10:02:03.829Z,13.75
2022-11-09T10:03:03.826Z,13.75
2022-11-09T10:04:03.999Z,13.81
2022-11-09T10:05:03.989Z,13.81
2022-11-09T10:06:03.975Z,13.88
2022-11-09T10:07:04.133Z,13.88
2022-11-09T10:08:04.071Z,13.88
2022-11-09T10:09:03.992Z,13.88
2022-11-09T10:10:04.157Z,13.88
2022-11-09T10:11:04.230Z,13.88
2022-11-09T10:12:04.382Z,13.94
2022-11-09T10:13:05.191Z,13.94
2022-11-09T10:14:04.389Z,13.88
2022-11-09T10:15:04.393Z,13.88
2022-11-09T10:16:04.405Z,13.94
2022-11-09T10:17:04.389Z,13.94
2022-11-09T10:18:04.314Z,13.88
2022-11-09T10:19:04.319Z,13.88
2022-11-09T10:20:04.238Z,13.88
2022-11-09T10:21:04.472Z,13.88
2022-11-09T10:22:04.475Z,13.94
2022-11-09T10:23:04.397Z,13.88
2022-11-09T10:24:03.512Z,13.88
2022-11-09T10:25:27.858Z,13.88
2022-11-09T10:26:05.454Z,13.88
2022-11-09T10:27:03.667Z,13.88
2022-11-09T10:28:03.670Z,13.88
2022-11-09T10:29:16.413Z,13.81
2022-11-09T10:30:03.913Z,13.81
2022-11-09T10:31:03.910Z,13.88
2022-11-09T10:32:03.910Z,13.81
2022-11-09T10:33:03.909Z,13.81
2022-11-09T10:34:03.995Z,13.81
2022-11-09T10:35:04.062Z,13.81
2022-11-09T10:36:08.125Z,13.88
2022-11-09T10:37:04.155Z,13.88
2022-11-09T10:38:04.312Z,13.88
2022-11-09T10:39:04.318Z,13.88
2022-11-09T10:40:04.327Z,13.88
2022-11-09T10:41:04.308Z,13.94
2022-11-09T10:42:04.399Z,13.94
2022-11-09T10:43:04.396Z,13.94
2022-11-09T10:44:04.400Z,13.94
2022-11-09T10:45:04.309Z,14.00
2022-11-09T10:46:04.479Z,13.94
2022-11-09T10:47:03.513Z,14.00
2022-11-09T10:48:03.515Z,14.00
2022-11-09T10:49:03.713Z,14.00
2022-11-09T10:50:03.713Z,14.00
2022-11-09T10:51:03.753Z,14.00
2022-11-09T10:52:03.670Z,14.00
2022-11-09T10:53:03.748Z,14.06
2022-11-09T10:54:03.824Z,14.06
2022-11-09T10:55:03.909Z,14.06
2022-11-09T10:56:04.031Z,14.06
2022-11-09T10:57:06.286Z,14.06
2022-11-09T10:58:04.260Z,14.06
2022-11-09T10:59:04.152Z,14.06
2022-11-09T11:00:04.308Z,14.06
2022-11-09T11:01:04.555Z,14.06
2022-11-09T11:02:04.495Z,14.06
2022-11-09T11:03:04.486Z,14.06
2022-11-09T11:04:04.465Z,14.06
2022-11-09T11:05:04.463Z,14.06
2022-11-09T11:06:03.426Z,14.06
2022-11-09T11:07:03.723Z,14.12
2022-11-09T11:08:03.667Z,14.12
2022-11-09T11:09:03.750Z,14.12
2022-11-09T11:10:03.680Z,14.12
2022-11-09T11:11:19.625Z,14.12
2022-11-09T11:12:03.825Z,14.12
2022-11-09T11:13:03.909Z,14.19
2022-11-09T11:14:03.988Z,14.19
2022-11-09T11:15:04.152Z,14.19
2022-11-09T11:16:04.235Z,14.19
2022-11-09T11:17:04.230Z,14.19
2022-11-09T11:18:04.394Z,14.19
2022-11-09T11:19:04.478Z,14.25
2022-11-09T11:20:04.390Z,14.25
2022-11-09T11:21:03.510Z,14.25
2022-11-09T11:22:03.681Z,14.31
2022-11-09T11:23:03.760Z,14.31
2022-11-09T11:24:03.677Z,14.31
2022-11-09T11:25:03.598Z,14.38
2022-11-09T11:26:03.598Z,14.38
2022-11-09T11:27:07.975Z,14.38
2022-11-09T11:28:05.205Z,14.44
2022-11-09T11:29:04.322Z,14.44
2022-11-09T11:30:04.314Z,14.44
2022-11-09T11:31:04.469Z,14.44
2022-11-09T11:32:03.503Z,14.44
2022-11-09T11:33:03.592Z,14.44
2022-11-09T11:34:03.760Z,14.44
2022-11-09T11:35:03.592Z,14.44
2022-11-09T11:36:05.440Z,14.50
2022-11-09T11:37:04.469Z,14.50
2022-11-09T11:38:03.559Z,14.50
2022-11-09T11:39:03.514Z,14.50
2022-11-09T11:40:03.755Z,14.50
2022-11-09T11:41:03.668Z,14.50
2022-11-09T11:42:03.830Z,14.56
2022-11-09T11:43:03.828Z,14.56
2022-11-09T11:44:03.671Z,14.56
2022-11-09T11:45:25.993Z,14.56
2022-11-09T11:46:03.904Z,14.56
2022-11-09T11:47:03.936Z,14.62
2022-11-09T11:48:04.007Z,14.56
2022-11-09T11:49:03.928Z,14.56
2022-11-09T11:50:03.933Z,14.62
2022-11-09T11:51:03.833Z,14.62
2022-11-09T11:52:03.901Z,14.62
2022-11-09T11:53:03.919Z,14.62
2022-11-09T11:54:03.907Z,14.62
2022-11-09T11:55:03.915Z,14.62
2022-11-09T11:56:03.994Z,14.69
2022-11-09T11:57:03.825Z,14.69
2022-11-09T11:58:03.903Z,14.69
2022-11-09T11:59:04.009Z,14.62
2022-11-09T12:00:03.989Z,14.69
2022-11-09T12:01:03.920Z,14.69
2022-11-09T12:02:04.000Z,14.69
2022-11-09T12:03:04.002Z,14.69
2022-11-09T12:04:04.079Z,14.69
2022-11-09T12:05:03.987Z,14.69
2022-11-09T12:06:04.159Z,14.69
2022-11-09T12:07:04.123Z,14.69
2022-11-09T12:08:04.063Z,14.69
2022-11-09T12:09:04.153Z,14.69
2022-11-09T12:10:04.317Z,14.69
2022-11-09T12:11:04.379Z,14.75
2022-11-09T12:12:04.469Z,14.75
2022-11-09T12:13:03.510Z,14.75
2022-11-09T12:14:03.589Z,14.75
2022-11-09T12:15:03.608Z,14.75
2022-11-09T12:16:03.762Z,14.75
2022-11-09T12:17:03.812Z,14.75
2022-11-09T12:18:03.909Z,14.75
2022-11-09T12:19:03.939Z,14.75
2022-11-09T12:20:04.076Z,14.75
2022-11-09T12:21:04.069Z,14.81
2022-11-09T12:22:04.150Z,14.81
2022-11-09T12:23:04.153Z,14.81
2022-11-09T12:24:04.400Z,14.81
2022-11-09T12:25:04.399Z,14.88
2022-11-09T12:26:04.403Z,14.88
2022-11-09T12:27:25.935Z,14.88
2022-11-09T12:28:04.313Z,14.88
2022-11-09T12:29:04.394Z,14.88
2022-11-09T12:30:03.592Z,14.88
2022-11-09T12:31:03.677Z,14.88
2022-11-09T12:32:03.676Z,14.88
2022-11-09T12:33:03.752Z,14.88
2022-11-09T12:34:03.839Z,14.88
2022-11-09T12:35:03.849Z,14.88
2022-11-09T12:36:03.893Z,14.88
2022-11-09T12:37:03.918Z,14.88
2022-11-09T12:38:03.830Z,14.94
2022-11-09T12:39:03.908Z,14.94
2022-11-09T12:40:03.915Z,14.94
2022-11-09T12:41:03.994Z,14.94
2022-11-09T12:42:03.996Z,14.94
2022-11-09T12:43:05.315Z,14.94
2022-11-09T12:44:04.064Z,14.94
2022-11-09T12:45:04.152Z,14.94
2022-11-09T12:46:04.089Z,15.00
2022-11-09T12:47:04.069Z,15.00
2022-11-09T12:48:04.069Z,15.00
2022-11-09T12:49:04.148Z,15.00
2022-11-09T12:50:04.313Z,15.00
2022-11-09T12:51:04.227Z,15.00
2022-11-09T12:52:04.301Z,15.00